Terminal Aerodrome Forecast
Issued by NWS Shreveport, LA

Home | Current Version | Previous Version | Text Only | Print | Product List | Glossary On
Versions: 1 2 3 4 5 6 7 8 9 10 11 12 13
346
FTUS44 KSHV 111138
TAFSHV
TAF
KSHV 111138Z 1112/1212 16011KT P6SM SCT030 OVC035
      TEMPO 1113/1115 BKN025
     FM111500 17011KT P6SM SCT015 OVC020
     FM111700 18014G22KT P6SM OVC015
     FM120000 19011KT P6SM SCT007 OVC013
     FM120300 20010KT P6SM OVC007
     FM120600 23006KT 6SM BR OVC005=

USA.gov is the U.S. government's official web portal to all federal, state and local government web resources and services.